Terminal Aerodrome Forecast
Issued by NWS Blacksburg, VA

Home | Current Version | Previous Version | Text Only | Print | Product List | Glossary On
Versions: 1 2 3 4 5 6 7 8 9 10 11 12 13 14 15 16 17 18 19 20 21 22 23 24 25 26 27 28 29 30 31
000
FTUS41 KRNK 012321
TAFROA
TAF
KROA 012321Z 0200/0224 14009KT P6SM -SHRA VCTS BKN050CB BKN120
     FM020200 23004KT P6SM VCTS SCT015 BKN040CB
     FM020600 VRB03KT 5SM BR VCSH SCT002 BKN035
     FM020900 26003KT 2SM BR BKN002
     FM021300 23008KT P6SM SCT015
     FM022000 24010G20KT 5SM SHRA VCTS BKN045CB OVC060=

USA.gov is the U.S. government's official web portal to all federal, state and local government web resources and services.